NCAR-RAP Real-Time Weather Data

Output produced by METARs form (23 February 2020  01:01 UTC)
found at http://weather.rap.ucar.edu/surface/
 
KILG 230051Z 22006KT 10SM CLR 05/M12 A3025 RMK AO2 SLP244 T00501122
KILG 222351Z 22006KT 10SM CLR 07/M13 A3025 RMK AO2 SLP243 T00671128 10106 20067 53003
KILG 222251Z 23006KT 10SM CLR 08/M13 A3023 RMK AO2 SLP236 T00781133